createdAt,value
2023-01-08T00:02:16.154Z,97673.91
2023-01-08T00:04:43.084Z,97691.72
2023-01-08T00:07:10.281Z,97682.53
2023-01-08T00:09:37.187Z,97677.38
2023-01-08T00:12:03.985Z,97688.56
2023-01-08T00:14:30.883Z,97691.94
2023-01-08T00:16:57.950Z,97696.00
2023-01-08T00:19:24.831Z,97689.50
2023-01-08T00:21:51.470Z,97682.50
2023-01-08T00:24:18.276Z,97685.75
2023-01-08T00:26:44.940Z,97687.41
2023-01-08T00:29:11.617Z,97686.56
2023-01-08T00:31:38.549Z,97693.56
2023-01-08T00:34:05.153Z,97690.66
2023-01-08T00:36:31.967Z,97688.56
2023-01-08T00:51:13.779Z,97694.94
2023-01-08T00:53:40.413Z,97691.53
2023-01-08T00:56:09.343Z,97685.09
2023-01-08T00:58:36.252Z,97701.19
2023-01-08T01:01:08.945Z,97690.72
2023-01-08T01:03:35.747Z,97693.31
2023-01-08T01:06:07.257Z,97691.91
2023-01-08T01:08:34.940Z,97696.34
2023-01-08T01:11:06.061Z,97693.31
2023-01-08T01:13:32.674Z,97697.31
2023-01-08T01:16:01.285Z,97685.16
2023-01-08T01:18:28.705Z,97685.16
2023-01-08T01:20:55.963Z,97685.97
2023-01-08T01:23:22.608Z,97692.16
2023-01-08T01:25:49.342Z,97682.94
2023-01-08T01:28:16.504Z,97692.63
2023-01-08T01:30:43.298Z,97686.69
2023-01-08T01:33:10.013Z,97683.19
2023-01-08T01:35:37.022Z,97682.03
2023-01-08T01:38:03.646Z,97680.97
2023-01-08T01:40:30.369Z,97683.66
2023-01-08T01:42:57.131Z,97681.44
2023-01-08T01:45:27.988Z,97671.19
2023-01-08T01:47:59.642Z,97672.25
2023-01-08T01:50:32.153Z,97667.34
2023-01-08T01:53:06.263Z,97676.47
2023-01-08T01:55:35.833Z,97672.38
2023-01-08T01:58:08.153Z,97667.94
2023-01-08T02:00:35.849Z,97657.13
2023-01-08T02:03:03.588Z,97663.75
2023-01-08T02:05:44.116Z,97655.59
2023-01-08T02:08:18.262Z,97650.59
2023-01-08T02:10:51.213Z,97647.78
2023-01-08T02:13:23.404Z,97647.59
2023-01-08T02:15:55.419Z,97648.97
2023-01-08T02:18:51.088Z,97647.09
2023-01-08T02:21:25.868Z,97645.22
2023-01-08T02:23:52.551Z,97646.13
2023-01-08T02:26:32.233Z,97636.81
2023-01-08T02:29:17.174Z,97641.81
2023-01-08T02:31:44.138Z,97639.22
2023-01-08T02:34:12.724Z,97637.47
2023-01-08T02:36:41.754Z,97639.19
2023-01-08T02:39:33.764Z,97640.34
2023-01-08T02:42:09.655Z,97639.81
2023-01-08T02:44:39.339Z,97638.28
2023-01-08T02:47:09.746Z,97637.34
2023-01-08T02:49:41.726Z,97641.38
2023-01-08T02:52:10.680Z,97642.06
2023-01-08T02:54:39.498Z,97640.06
2023-01-08T02:57:11.786Z,97638.53
2023-01-08T02:59:40.771Z,97626.28
2023-01-08T03:02:07.685Z,97629.59
2023-01-08T03:04:43.821Z,97643.44
2023-01-08T03:07:10.515Z,97636.31
2023-01-08T03:09:37.460Z,97626.28
2023-01-08T03:12:31.358Z,97627.78
2023-01-08T03:15:08.986Z,97625.75
2023-01-08T03:17:48.937Z,97620.53
2023-01-08T03:20:18.995Z,97624.44
2023-01-08T03:22:49.478Z,97622.66
2023-01-08T03:25:20.407Z,97617.53
2023-01-08T03:27:53.023Z,97622.94
2023-01-08T03:30:22.148Z,97615.81
2023-01-08T03:32:50.255Z,97618.34
2023-01-08T03:35:21.316Z,97619.38
2023-01-08T03:37:58.073Z,97614.47
2023-01-08T03:40:36.909Z,97620.25
2023-01-08T03:43:04.049Z,97619.06
2023-01-08T03:45:32.493Z,97616.22
2023-01-08T03:48:02.269Z,97617.69
2023-01-08T03:50:31.539Z,97614.44
2023-01-08T03:53:00.663Z,97610.41
2023-01-08T03:55:27.806Z,97607.97
2023-01-08T03:57:54.543Z,97614.56
2023-01-08T04:00:21.211Z,97611.50
2023-01-08T04:02:47.968Z,97621.38
2023-01-08T04:05:14.577Z,97615.44
2023-01-08T04:07:41.255Z,97618.56
2023-01-08T04:10:08.382Z,97632.91
2023-01-08T04:12:35.101Z,97634.19
2023-01-08T04:15:01.962Z,97633.78
2023-01-08T04:17:28.688Z,97626.22
2023-01-08T04:19:55.352Z,97624.22
2023-01-08T04:22:21.957Z,97630.78
2023-01-08T04:24:48.742Z,97619.31
2023-01-08T04:27:15.403Z,97623.22
2023-01-08T04:29:42.022Z,97617.88
2023-01-08T04:32:08.760Z,97616.91
2023-01-08T04:34:35.459Z,97616.53
2023-01-08T04:37:03.144Z,97624.16
2023-01-08T04:39:29.786Z,97621.69
2023-01-08T04:41:56.448Z,97622.72
2023-01-08T04:44:23.198Z,97617.38
2023-01-08T04:46:49.916Z,97619.44
2023-01-08T04:49:16.984Z,97624.38
2023-01-08T04:51:43.942Z,97623.56
2023-01-08T04:54:10.936Z,97620.91
2023-01-08T04:56:37.617Z,97618.06
2023-01-08T04:59:04.453Z,97616.44
2023-01-08T05:01:31.197Z,97621.97
2023-01-08T05:04:03.297Z,97618.31
2023-01-08T05:06:32.128Z,97620.13
2023-01-08T05:08:59.172Z,97622.41
2023-01-08T05:11:26.103Z,97621.00
2023-01-08T05:13:53.967Z,97620.81
2023-01-08T05:16:21.457Z,97620.22
2023-01-08T05:18:48.400Z,97614.28
2023-01-08T05:21:15.393Z,97612.66
2023-01-08T05:23:47.674Z,97608.78
2023-01-08T05:26:15.445Z,97618.41
2023-01-08T05:28:42.193Z,97616.16
2023-01-08T05:31:08.945Z,97610.25
2023-01-08T05:33:35.785Z,97612.09
2023-01-08T05:36:05.535Z,97613.91
2023-01-08T05:38:32.186Z,97613.34
2023-01-08T05:40:58.813Z,97611.72
2023-01-08T05:43:25.708Z,97611.31
2023-01-08T05:45:52.700Z,97608.84
2023-01-08T05:48:19.440Z,97610.69
2023-01-08T05:50:49.466Z,97605.78
2023-01-08T05:53:16.231Z,97598.22
2023-01-08T05:55:43.311Z,97605.63
2023-01-08T05:58:11.898Z,97601.53
2023-01-08T06:00:39.415Z,97606.84
2023-01-08T06:03:06.392Z,97605.06
2023-01-08T06:05:33.825Z,97608.31
2023-01-08T06:08:00.650Z,97617.13
2023-01-08T06:10:27.588Z,97607.50
2023-01-08T06:12:54.973Z,97613.63
2023-01-08T06:15:21.835Z,97613.41
2023-01-08T06:17:48.547Z,97619.78
2023-01-08T06:20:15.371Z,97614.69
2023-01-08T06:22:41.976Z,97622.88
2023-01-08T06:25:09.057Z,97622.25
2023-01-08T06:27:35.693Z,97625.09
2023-01-08T06:30:02.336Z,97617.34
2023-01-08T06:32:29.030Z,97613.47
2023-01-08T06:34:55.752Z,97617.94
2023-01-08T06:37:22.376Z,97622.44
2023-01-08T06:39:49.091Z,97619.78
2023-01-08T06:42:15.781Z,97633.09
2023-01-08T06:44:42.411Z,97622.66
2023-01-08T06:47:09.133Z,97618.38
2023-01-08T06:49:36.593Z,97623.88
2023-01-08T06:52:03.386Z,97618.56
2023-01-08T06:54:30.084Z,97625.50
2023-01-08T06:56:56.950Z,97628.78
2023-01-08T06:59:23.828Z,97634.72
2023-01-08T07:01:51.005Z,97630.00
2023-01-08T07:04:18.792Z,97626.28
2023-01-08T07:06:46.818Z,97620.53
2023-01-08T07:09:15.272Z,97638.97
2023-01-08T07:11:42.510Z,97627.72
2023-01-08T07:14:09.389Z,97635.50
2023-01-08T07:16:36.511Z,97635.72
2023-01-08T07:19:03.543Z,97634.47
2023-01-08T07:21:31.237Z,97631.81
2023-01-08T07:23:59.597Z,97637.75
2023-01-08T07:26:27.059Z,97635.88
2023-01-08T07:28:54.075Z,97635.47
2023-01-08T07:31:20.799Z,97632.56
2023-01-08T07:33:47.654Z,97627.47
2023-01-08T07:36:14.945Z,97626.03
2023-01-08T07:38:42.583Z,97630.94
2023-01-08T07:41:09.202Z,97635.25
2023-01-08T07:43:36.001Z,97634.00
2023-01-08T07:46:04.026Z,97635.44
2023-01-08T07:48:30.833Z,97637.06
2023-01-08T07:51:04.975Z,97639.53
2023-01-08T07:53:31.948Z,97642.59
2023-01-08T07:56:03.239Z,97643.19
2023-01-08T07:58:30.201Z,97643.34
2023-01-08T08:00:59.344Z,97645.38
2023-01-08T08:03:26.424Z,97641.25
2023-01-08T08:05:53.361Z,97642.22
2023-01-08T08:08:20.583Z,97642.41
2023-01-08T08:10:47.452Z,97645.47
2023-01-08T08:13:14.281Z,97641.34
2023-01-08T08:15:41.557Z,97638.03
2023-01-08T08:18:08.898Z,97638.78
2023-01-08T08:20:36.562Z,97633.19
2023-01-08T08:23:13.915Z,97638.25
2023-01-08T08:25:43.730Z,97639.84
2023-01-08T08:28:11.953Z,97642.25
2023-01-08T08:30:42.109Z,97640.34
2023-01-08T08:33:09.983Z,97644.56
2023-01-08T08:35:37.440Z,97645.31
2023-01-08T08:38:07.382Z,97641.75
2023-01-08T08:40:34.041Z,97638.22
2023-01-08T08:43:03.689Z,97640.16
2023-01-08T08:45:31.084Z,97637.19
2023-01-08T08:47:58.056Z,97638.53
2023-01-08T08:50:25.286Z,97631.84
2023-01-08T08:52:52.829Z,97626.19
2023-01-08T08:55:20.400Z,97626.13
2023-01-08T08:57:47.815Z,97629.31
2023-01-08T09:00:15.856Z,97622.78
2023-01-08T09:02:44.790Z,97620.94
2023-01-08T09:05:12.190Z,97616.00
2023-01-08T09:07:38.949Z,97618.50
2023-01-08T09:10:06.110Z,97608.63
2023-01-08T09:12:32.770Z,97606.91
2023-01-08T09:14:59.424Z,97606.69
2023-01-08T09:17:26.185Z,97594.59
2023-01-08T09:19:53.083Z,97601.69
2023-01-08T09:22:20.495Z,97602.25
2023-01-08T09:24:47.577Z,97592.34
2023-01-08T09:27:14.774Z,97588.38
2023-01-08T09:29:41.692Z,97586.81
2023-01-08T09:32:11.082Z,97581.75
2023-01-08T09:34:38.304Z,97579.13
2023-01-08T09:37:05.863Z,97576.25
2023-01-08T09:39:33.441Z,97581.06
2023-01-08T09:42:06.097Z,97580.00
2023-01-08T09:44:46.284Z,97564.25
2023-01-08T09:47:29.781Z,97576.41
2023-01-08T09:50:05.055Z,97569.13
2023-01-08T09:52:32.288Z,97570.97
2023-01-08T09:55:00.525Z,97572.00
2023-01-08T09:57:29.017Z,97561.69
2023-01-08T09:59:57.263Z,97566.19
2023-01-08T10:02:26.310Z,97558.88
2023-01-08T10:04:59.702Z,97557.41
2023-01-08T10:07:28.603Z,97562.94
2023-01-08T10:09:55.901Z,97556.63
2023-01-08T10:12:28.995Z,97547.34
2023-01-08T10:15:08.636Z,97545.31
2023-01-08T10:17:41.058Z,97551.66
2023-01-08T10:20:13.402Z,97542.56
2023-01-08T10:22:40.347Z,97538.00
2023-01-08T10:25:10.597Z,97527.56
2023-01-08T10:27:49.853Z,97528.72
2023-01-08T10:30:19.600Z,97523.16
2023-01-08T10:32:49.825Z,97523.47
2023-01-08T10:35:22.895Z,97516.00
2023-01-08T10:37:50.640Z,97514.16
2023-01-08T10:40:52.036Z,97519.31
2023-01-08T10:43:24.241Z,97506.66
2023-01-08T10:46:03.368Z,97508.31
2023-01-08T10:48:53.134Z,97494.53
2023-01-08T10:51:31.053Z,97501.84
2023-01-08T10:54:14.507Z,97491.34
2023-01-08T10:56:43.919Z,97487.53
2023-01-08T10:59:21.407Z,97489.16
2023-01-08T11:01:50.485Z,97478.63
2023-01-08T11:04:33.133Z,97475.66
2023-01-08T11:07:06.705Z,97473.72
2023-01-08T11:09:39.373Z,97476.94
2023-01-08T11:12:27.851Z,97467.19
2023-01-08T11:14:54.491Z,97468.25
2023-01-08T11:17:25.837Z,97467.41
2023-01-08T11:19:54.596Z,97466.88
2023-01-08T11:22:24.921Z,97460.06
2023-01-08T11:24:53.773Z,97454.88
2023-01-08T11:27:32.761Z,97459.16
2023-01-08T11:30:19.742Z,97455.84
2023-01-08T11:32:56.028Z,97445.00
2023-01-08T11:35:27.180Z,97448.47
2023-01-08T11:37:59.432Z,97441.66
2023-01-08T11:40:33.847Z,97451.09
2023-01-08T11:43:38.817Z,97447.03
2023-01-08T11:46:17.470Z,97444.06
2023-01-08T11:49:12.355Z,97442.66
2023-01-08T11:51:44.922Z,97441.84
2023-01-08T11:54:49.058Z,97436.69
2023-01-08T11:57:52.738Z,97439.09
2023-01-08T12:00:37.152Z,97439.59
2023-01-08T12:03:15.381Z,97435.81
2023-01-08T12:05:53.300Z,97429.53
2023-01-08T12:08:38.729Z,97435.94
2023-01-08T12:11:14.262Z,97433.22
2023-01-08T12:14:02.784Z,97434.03
2023-01-08T12:17:06.324Z,97429.41
2023-01-08T12:20:08.260Z,97430.19
2023-01-08T12:22:55.910Z,97427.19
2023-01-08T12:25:44.343Z,97421.75
2023-01-08T12:28:23.064Z,97420.41
2023-01-08T12:31:11.652Z,97417.53
2023-01-08T12:34:00.907Z,97419.47
2023-01-08T12:36:42.572Z,97402.75
2023-01-08T12:39:22.362Z,97411.94
2023-01-08T12:41:52.581Z,97411.19
2023-01-08T12:44:26.147Z,97410.69
2023-01-08T12:46:55.595Z,97418.34
2023-01-08T12:49:30.990Z,97407.00
2023-01-08T12:52:16.472Z,97402.19
2023-01-08T12:54:58.331Z,97407.06
2023-01-08T12:58:00.913Z,97404.41
2023-01-08T13:00:38.041Z,97399.31
2023-01-08T13:03:11.978Z,97406.63
2023-01-08T13:05:38.770Z,97410.44
2023-01-08T13:08:08.258Z,97403.97
2023-01-08T13:10:39.335Z,97402.91
2023-01-08T13:13:21.930Z,97395.63
2023-01-08T13:15:48.778Z,97395.91
2023-01-08T13:18:20.947Z,97392.41
2023-01-08T13:20:58.415Z,97392.69
2023-01-08T13:23:28.069Z,97392.94
2023-01-08T13:25:57.275Z,97396.47
2023-01-08T13:28:45.549Z,97398.09
2023-01-08T13:31:21.331Z,97391.63
2023-01-08T13:33:52.690Z,97387.88
2023-01-08T13:36:21.467Z,97382.75
2023-01-08T13:39:07.604Z,97388.16
2023-01-08T13:41:41.214Z,97386.84
2023-01-08T13:44:30.536Z,97382.53
2023-01-08T13:47:00.618Z,97381.44
2023-01-08T13:49:43.043Z,97380.09
2023-01-08T13:52:28.102Z,97384.44
2023-01-08T13:54:55.245Z,97373.41
2023-01-08T13:57:23.707Z,97377.75
2023-01-08T13:59:55.839Z,97377.75
2023-01-08T14:02:34.673Z,97378.84
2023-01-08T14:05:03.322Z,97392.38
2023-01-08T14:07:30.786Z,97377.53
2023-01-08T14:10:12.478Z,97392.13
2023-01-08T14:12:39.709Z,97388.09
2023-01-08T14:15:10.153Z,97385.69
2023-01-08T14:17:40.428Z,97386.22
2023-01-08T14:20:11.948Z,97395.69
2023-01-08T14:22:42.044Z,97393.03
2023-01-08T14:25:13.255Z,97391.41
2023-01-08T14:27:39.977Z,97382.25
2023-01-08T14:30:17.528Z,97388.44
2023-01-08T14:32:45.314Z,97387.09
2023-01-08T14:35:16.694Z,97387.09
2023-01-08T14:37:43.945Z,97379.50
2023-01-08T14:40:15.632Z,97383.53
2023-01-08T14:42:46.329Z,97377.03
2023-01-08T14:45:28.849Z,97375.91
2023-01-08T14:48:02.545Z,97375.59
2023-01-08T14:50:33.555Z,97384.47
2023-01-08T14:53:07.095Z,97384.41
2023-01-08T14:55:42.484Z,97378.41
2023-01-08T14:58:19.824Z,97377.56
2023-01-08T15:00:51.977Z,97381.53
2023-01-08T15:03:39.701Z,97380.91
2023-01-08T15:06:07.900Z,97387.03
2023-01-08T15:08:38.004Z,97377.25
2023-01-08T15:11:19.790Z,97384.38
2023-01-08T15:13:48.509Z,97378.38
2023-01-08T15:16:28.171Z,97380.16
2023-01-08T15:19:10.834Z,97388.66
2023-01-08T15:21:39.244Z,97386.38
2023-01-08T15:24:07.483Z,97394.59
2023-01-08T15:26:34.360Z,97390.72
2023-01-08T15:29:05.216Z,97385.53
2023-01-08T15:31:52.174Z,97391.13
2023-01-08T15:34:20.535Z,97393.94
2023-01-08T15:36:48.720Z,97388.69
2023-01-08T15:39:15.363Z,97386.09
2023-01-08T15:42:01.152Z,97389.78
2023-01-08T15:44:28.235Z,97385.91
2023-01-08T15:46:58.386Z,97385.78
2023-01-08T15:49:25.119Z,97391.00
2023-01-08T15:51:52.652Z,97397.59
2023-01-08T15:54:21.861Z,97393.47
2023-01-08T15:56:49.822Z,97397.06
2023-01-08T15:59:16.488Z,97398.53
2023-01-08T16:01:43.421Z,97390.66
2023-01-08T16:04:10.357Z,97395.91
2023-01-08T16:06:37.099Z,97400.41
2023-01-08T16:09:03.924Z,97395.53
2023-01-08T16:11:30.689Z,97398.94
2023-01-08T16:13:57.312Z,97400.38
2023-01-08T16:16:24.267Z,97408.09
2023-01-08T16:18:52.643Z,97406.41
2023-01-08T16:21:19.318Z,97403.06
2023-01-08T16:23:46.571Z,97402.72
2023-01-08T16:26:15.236Z,97416.59
2023-01-08T16:28:42.317Z,97413.00
2023-01-08T16:31:09.704Z,97413.19
2023-01-08T16:33:36.991Z,97415.31
2023-01-08T16:36:06.270Z,97419.59
2023-01-08T16:38:33.660Z,97414.81
2023-01-08T16:41:01.304Z,97408.53
2023-01-08T16:43:30.115Z,97406.03
2023-01-08T16:45:56.975Z,97412.41
2023-01-08T16:48:24.039Z,97415.00
2023-01-08T16:50:50.685Z,97423.47
2023-01-08T16:53:17.850Z,97425.34
2023-01-08T16:55:44.548Z,97417.31
2023-01-08T16:58:11.178Z,97420.25
2023-01-08T17:00:38.612Z,97423.94
2023-01-08T17:03:06.583Z,97417.44
2023-01-08T17:05:36.438Z,97416.88
2023-01-08T17:08:03.336Z,97415.72
2023-01-08T17:10:30.132Z,97424.44
2023-01-08T17:12:56.728Z,97425.41
2023-01-08T17:15:23.465Z,97422.03
2023-01-08T17:17:50.502Z,97427.03
2023-01-08T17:20:19.812Z,97423.66
2023-01-08T17:22:47.053Z,97430.53
2023-01-08T17:25:14.334Z,97420.75
2023-01-08T17:27:41.766Z,97419.81
2023-01-08T17:30:13.907Z,97436.78
2023-01-08T17:32:40.948Z,97435.28
2023-01-08T17:35:08.454Z,97430.84
2023-01-08T17:37:35.542Z,97430.72
2023-01-08T17:40:02.915Z,97438.41
2023-01-08T17:42:30.840Z,97425.38
2023-01-08T17:45:02.881Z,97421.50
2023-01-08T17:47:31.589Z,97439.66
2023-01-08T17:49:58.608Z,97431.03
2023-01-08T17:52:25.987Z,97432.53
2023-01-08T17:54:53.272Z,97437.31
2023-01-08T17:57:21.164Z,97441.25
2023-01-08T17:59:48.851Z,97441.13
2023-01-08T18:02:17.387Z,97443.06
2023-01-08T18:04:45.711Z,97439.69
2023-01-08T18:07:13.261Z,97445.47
2023-01-08T18:09:40.218Z,97448.34
2023-01-08T18:12:07.491Z,97451.72
2023-01-08T18:14:36.268Z,97449.47
2023-01-08T18:17:03.326Z,97442.41
2023-01-08T18:19:30.099Z,97446.69
2023-01-08T18:21:56.865Z,97441.59
2023-01-08T18:24:23.645Z,97432.75
2023-01-08T18:26:50.547Z,97439.38
2023-01-08T18:29:17.142Z,97432.59
2023-01-08T18:31:46.134Z,97432.00
2023-01-08T18:34:15.073Z,97431.44
2023-01-08T18:36:42.280Z,97430.25
2023-01-08T18:39:09.283Z,97430.94
2023-01-08T18:41:54.537Z,97417.44
2023-01-08T18:44:21.490Z,97423.66
2023-01-08T18:46:48.597Z,97423.31
2023-01-08T18:49:15.689Z,97422.59
2023-01-08T18:51:43.249Z,97428.38
2023-01-08T18:54:11.606Z,97416.72
2023-01-08T18:56:38.697Z,97422.28
2023-01-08T18:59:06.915Z,97423.34
2023-01-08T19:01:35.235Z,97429.25
2023-01-08T19:04:02.326Z,97423.72
2023-01-08T19:06:29.456Z,97415.09
2023-01-08T19:08:58.555Z,97414.06
2023-01-08T19:11:25.754Z,97411.38
2023-01-08T19:13:58.998Z,97413.25
2023-01-08T19:16:26.755Z,97422.06
2023-01-08T19:18:54.084Z,97417.53
2023-01-08T19:21:21.568Z,97420.81
2023-01-08T19:23:56.132Z,97418.56
2023-01-08T19:26:23.016Z,97416.59
2023-01-08T19:28:50.380Z,97417.84
2023-01-08T19:31:18.236Z,97413.38
2023-01-08T19:33:46.453Z,97422.44
2023-01-08T19:36:16.059Z,97422.66
2023-01-08T19:38:43.974Z,97415.91
2023-01-08T19:41:30.891Z,97426.00
2023-01-08T19:44:00.207Z,97416.34
2023-01-08T19:46:27.713Z,97420.88
2023-01-08T19:48:59.349Z,97420.06
2023-01-08T19:51:27.243Z,97419.09
2023-01-08T19:53:56.253Z,97421.31
2023-01-08T19:56:23.291Z,97422.38
2023-01-08T19:58:50.692Z,97423.59
2023-01-08T20:01:20.763Z,97413.03
2023-01-08T20:03:48.171Z,97431.31
2023-01-08T20:06:20.965Z,97419.00
2023-01-08T20:08:53.497Z,97410.19
2023-01-08T20:11:22.459Z,97413.09
2023-01-08T20:13:50.254Z,97400.22
2023-01-08T20:16:19.292Z,97399.16
2023-01-08T20:18:46.499Z,97396.94
2023-01-08T20:21:21.070Z,97403.97
2023-01-08T20:23:48.483Z,97411.16
2023-01-08T20:26:18.076Z,97407.31
2023-01-08T20:28:46.358Z,97405.50
2023-01-08T20:31:23.724Z,97405.94
2023-01-08T20:33:51.662Z,97402.09
2023-01-08T20:36:24.167Z,97394.34
2023-01-08T20:38:53.684Z,97384.91
2023-01-08T20:41:20.907Z,97394.75
2023-01-08T20:43:48.010Z,97382.97
2023-01-08T20:46:15.274Z,97389.09
2023-01-08T20:48:47.494Z,97381.78
2023-01-08T20:51:15.951Z,97391.00
2023-01-08T20:53:42.763Z,97387.97
2023-01-08T20:56:12.770Z,97388.78
2023-01-08T20:58:42.132Z,97391.88
2023-01-08T21:01:12.614Z,97393.72
2023-01-08T21:03:42.295Z,97392.16
2023-01-08T21:06:12.253Z,97398.28
2023-01-08T21:08:43.266Z,97393.41
2023-01-08T21:11:11.190Z,97397.09
2023-01-08T21:13:39.143Z,97394.66
2023-01-08T21:16:09.974Z,97399.38
2023-01-08T21:18:37.205Z,97401.47
2023-01-08T21:21:05.407Z,97402.09
2023-01-08T21:23:33.861Z,97411.34
2023-01-08T21:26:03.318Z,97414.06
2023-01-08T21:28:30.059Z,97408.75
2023-01-08T21:31:04.695Z,97407.56
2023-01-08T21:33:31.719Z,97406.13
2023-01-08T21:35:58.305Z,97398.56
2023-01-08T21:38:25.499Z,97404.94
2023-01-08T21:40:59.828Z,97404.75
2023-01-08T21:43:45.765Z,97405.75
2023-01-08T21:46:13.119Z,97402.09
2023-01-08T21:48:39.799Z,97396.78
2023-01-08T21:51:26.553Z,97392.06
2023-01-08T21:53:53.313Z,97393.09
2023-01-08T21:56:20.218Z,97389.66
2023-01-08T21:58:47.116Z,97383.13
2023-01-08T22:01:14.087Z,97378.22
2023-01-08T22:03:41.201Z,97381.69
2023-01-08T22:06:08.390Z,97373.72
2023-01-08T22:08:35.645Z,97380.47
2023-01-08T22:11:07.697Z,97388.44
2023-01-08T22:13:35.555Z,97380.31
2023-01-08T22:16:09.229Z,97381.94
2023-01-08T22:18:37.245Z,97378.66
2023-01-08T22:21:06.968Z,97368.06
2023-01-08T22:23:34.051Z,97378.25
2023-01-08T22:26:07.895Z,97368.50
2023-01-08T22:28:39.159Z,97376.25
2023-01-08T22:31:07.556Z,97370.94
2023-01-08T22:33:34.558Z,97368.69
2023-01-08T22:36:12.569Z,97364.41
2023-01-08T22:38:40.012Z,97360.31
2023-01-08T22:41:15.396Z,97366.91
2023-01-08T22:43:42.389Z,97354.03
2023-01-08T22:46:13.587Z,97350.31
2023-01-08T22:48:40.717Z,97351.38
2023-01-08T22:51:08.646Z,97350.31
2023-01-08T22:53:35.794Z,97348.47
2023-01-08T22:56:05.243Z,97353.00
2023-01-08T22:58:31.973Z,97346.03
2023-01-08T23:00:58.732Z,97335.00
2023-01-08T23:03:25.435Z,97335.22
2023-01-08T23:06:01.513Z,97340.53
2023-01-08T23:08:28.143Z,97335.03
2023-01-08T23:10:57.483Z,97340.38
2023-01-08T23:13:24.116Z,97328.28
2023-01-08T23:15:50.742Z,97325.25
2023-01-08T23:18:17.427Z,97337.72
2023-01-08T23:20:44.051Z,97324.28
2023-01-08T23:23:10.686Z,97312.44
2023-01-08T23:25:37.404Z,97318.97
2023-01-08T23:28:04.158Z,97320.00
2023-01-08T23:30:32.003Z,97316.34
2023-01-08T23:32:59.108Z,97312.28
2023-01-08T23:35:26.216Z,97318.41
2023-01-08T23:37:52.982Z,97315.94
2023-01-08T23:40:19.683Z,97309.81
2023-01-08T23:42:46.670Z,97310.84
2023-01-08T23:45:13.303Z,97320.06
2023-01-08T23:47:39.954Z,97302.69
2023-01-08T23:50:07.383Z,97302.91
2023-01-08T23:52:34.196Z,97307.03
2023-01-08T23:55:00.850Z,97305.59
2023-01-08T23:57:27.940Z,97303.16
2023-01-08T23:59:55.387Z,97290.06
